sensor_id;sensor_type;location;lat;lon;timestamp;P1;durP1;ratioP1;P2;durP2;ratioP2
14528;SDS011;7351;51.194;4.098;2022-10-03T07:56:48;22.30;;;18.73;;
14528;SDS011;7351;51.194;4.098;2022-10-03T08:02:39;28.70;;;19.57;;
14528;SDS011;7351;51.194;4.098;2022-10-03T08:05:35;26.57;;;16.97;;
14528;SDS011;7351;51.194;4.098;2022-10-03T08:14:17;41.77;;;19.23;;
14528;SDS011;7351;51.194;4.098;2022-10-03T08:22:53;32.77;;;17.53;;
14528;SDS011;7351;51.194;4.098;2022-10-03T08:25:35;20.20;;;16.47;;
14528;SDS011;7351;51.194;4.098;2022-10-03T08:28:20;24.90;;;18.20;;
14528;SDS011;7351;51.194;4.098;2022-10-03T08:31:12;24.03;;;17.40;;
14528;SDS011;7351;51.194;4.098;2022-10-03T08:40:35;30.37;;;17.57;;
14528;SDS011;7351;51.194;4.098;2022-10-03T08:43:51;31.80;;;17.13;;
14528;SDS011;7351;51.194;4.098;2022-10-03T08:46:47;27.10;;;16.50;;
14528;SDS011;7351;51.194;4.098;2022-10-03T08:52:56;18.47;;;14.40;;
14528;SDS011;7351;51.194;4.098;2022-10-03T08:55:44;24.00;;;14.80;;
14528;SDS011;7351;51.194;4.098;2022-10-03T08:58:36;29.77;;;16.27;;
14528;SDS011;7351;51.194;4.098;2022-10-03T09:01:31;26.27;;;13.53;;
14528;SDS011;7351;51.194;4.098;2022-10-03T09:04:22;24.43;;;13.70;;
14528;SDS011;7351;51.194;4.098;2022-10-03T09:07:18;25.07;;;12.97;;
14528;SDS011;7351;51.194;4.098;2022-10-03T09:10:13;26.90;;;10.77;;
14528;SDS011;7351;51.194;4.098;2022-10-03T09:13:05;23.67;;;11.63;;
14528;SDS011;7351;51.194;4.098;2022-10-03T09:19:02;19.43;;;11.60;;
14528;SDS011;7351;51.194;4.098;2022-10-03T09:25:05;15.97;;;9.60;;
14528;SDS011;7351;51.194;4.098;2022-10-03T09:27:58;26.57;;;9.40;;
14528;SDS011;7351;51.194;4.098;2022-10-03T09:30:46;18.10;;;7.47;;
14528;SDS011;7351;51.194;4.098;2022-10-03T09:42:59;22.83;;;9.80;;
14528;SDS011;7351;51.194;4.098;2022-10-03T09:49:03;16.50;;;7.87;;
14528;SDS011;7351;51.194;4.098;2022-10-03T09:51:57;19.43;;;7.97;;
14528;SDS011;7351;51.194;4.098;2022-10-03T09:54:42;16.43;;;7.83;;
14528;SDS011;7351;51.194;4.098;2022-10-03T10:00:25;15.73;;;7.60;;
14528;SDS011;7351;51.194;4.098;2022-10-03T10:03:02;20.83;;;7.50;;
14528;SDS011;7351;51.194;4.098;2022-10-03T10:12:24;18.97;;;6.90;;
14528;SDS011;7351;51.194;4.098;2022-10-03T10:34:35;16.43;;;5.10;;
14528;SDS011;7351;51.194;4.098;2022-10-03T10:37:37;13.77;;;5.33;;
14528;SDS011;7351;51.194;4.098;2022-10-03T10:40:42;16.27;;;4.60;;
14528;SDS011;7351;51.194;4.098;2022-10-03T11:05:35;10.80;;;3.47;;
14528;SDS011;7351;51.194;4.098;2022-10-03T11:24:33;8.67;;;4.20;;
14528;SDS011;7351;51.194;4.098;2022-10-03T11:30:41;9.80;;;3.77;;
14528;SDS011;7351;51.194;4.098;2022-10-03T11:33:38;7.20;;;3.70;;
14528;SDS011;7351;51.194;4.098;2022-10-03T11:39:37;6.37;;;2.80;;
14528;SDS011;7351;51.194;4.098;2022-10-03T11:42:11;7.93;;;3.50;;
14528;SDS011;7351;51.194;4.098;2022-10-03T11:44:51;9.30;;;3.53;;
14528;SDS011;7351;51.194;4.098;2022-10-03T11:47:39;14.23;;;4.30;;
14528;SDS011;7351;51.194;4.098;2022-10-03T11:50:28;14.67;;;5.30;;
14528;SDS011;7351;51.194;4.098;2022-10-03T11:53:16;7.70;;;3.63;;
14528;SDS011;7351;51.194;4.098;2022-10-03T11:55:50;10.83;;;3.70;;
14528;SDS011;7351;51.194;4.098;2022-10-03T11:58:30;10.50;;;3.77;;
14528;SDS011;7351;51.194;4.098;2022-10-03T12:01:22;12.70;;;5.03;;
14528;SDS011;7351;51.194;4.098;2022-10-03T12:03:59;8.70;;;3.33;;
14528;SDS011;7351;51.194;4.098;2022-10-03T12:06:50;9.77;;;3.90;;
14528;SDS011;7351;51.194;4.098;2022-10-03T12:09:44;5.13;;;2.60;;
14528;SDS011;7351;51.194;4.098;2022-10-03T12:12:26;9.80;;;5.83;;
14528;SDS011;7351;51.194;4.098;2022-10-03T12:15:01;8.83;;;3.13;;
14528;SDS011;7351;51.194;4.098;2022-10-03T12:17:41;5.73;;;2.73;;
14528;SDS011;7351;51.194;4.098;2022-10-03T12:20:17;8.60;;;3.40;;
14528;SDS011;7351;51.194;4.098;2022-10-03T12:22:49;10.33;;;4.10;;
14528;SDS011;7351;51.194;4.098;2022-10-03T12:25:21;7.10;;;2.60;;
14528;SDS011;7351;51.194;4.098;2022-10-03T12:27:55;7.93;;;2.87;;
14528;SDS011;7351;51.194;4.098;2022-10-03T12:30:27;10.30;;;2.70;;
14528;SDS011;7351;51.194;4.098;2022-10-03T12:33:17;9.93;;;3.43;;
14528;SDS011;7351;51.194;4.098;2022-10-03T12:35:56;6.07;;;2.43;;
14528;SDS011;7351;51.194;4.098;2022-10-03T12:38:33;6.37;;;2.77;;
14528;SDS011;7351;51.194;4.098;2022-10-03T12:41:14;6.30;;;2.73;;
14528;SDS011;7351;51.194;4.098;2022-10-03T12:46:56;5.63;;;3.40;;
14528;SDS011;7351;51.194;4.098;2022-10-03T12:49:40;8.17;;;4.20;;
14528;SDS011;7351;51.194;4.098;2022-10-03T12:52:16;7.80;;;3.50;;
14528;SDS011;7351;51.194;4.098;2022-10-03T12:54:51;6.60;;;2.53;;
14528;SDS011;7351;51.194;4.098;2022-10-03T12:57:45;12.07;;;3.97;;
14528;SDS011;7351;51.194;4.098;2022-10-03T13:00:21;5.60;;;2.20;;
14528;SDS011;7351;51.194;4.098;2022-10-03T13:08:52;8.63;;;2.83;;
14528;SDS011;7351;51.194;4.098;2022-10-03T13:11:30;8.57;;;3.43;;
14528;SDS011;7351;51.194;4.098;2022-10-03T13:14:04;9.23;;;3.17;;
14528;SDS011;7351;51.194;4.098;2022-10-03T13:16:43;6.73;;;2.40;;
14528;SDS011;7351;51.194;4.098;2022-10-03T13:19:24;5.47;;;2.70;;
14528;SDS011;7351;51.194;4.098;2022-10-03T13:21:55;7.00;;;2.73;;
14528;SDS011;7351;51.194;4.098;2022-10-03T13:24:35;5.73;;;2.57;;
14528;SDS011;7351;51.194;4.098;2022-10-03T13:30:04;8.67;;;2.70;;
14528;SDS011;7351;51.194;4.098;2022-10-03T13:32:41;11.73;;;3.10;;
14528;SDS011;7351;51.194;4.098;2022-10-03T13:35:22;5.93;;;3.03;;
14528;SDS011;7351;51.194;4.098;2022-10-03T13:38:22;12.67;;;4.13;;
14528;SDS011;7351;51.194;4.098;2022-10-03T13:44:11;7.33;;;2.53;;
14528;SDS011;7351;51.194;4.098;2022-10-03T13:46:42;10.30;;;2.70;;
14528;SDS011;7351;51.194;4.098;2022-10-03T13:49:15;10.77;;;3.30;;
14528;SDS011;7351;51.194;4.098;2022-10-03T13:51:50;9.37;;;2.97;;
14528;SDS011;7351;51.194;4.098;2022-10-03T13:54:34;8.30;;;3.27;;
14528;SDS011;7351;51.194;4.098;2022-10-03T13:57:14;6.20;;;3.43;;
14528;SDS011;7351;51.194;4.098;2022-10-03T13:59:50;10.17;;;3.30;;
14528;SDS011;7351;51.194;4.098;2022-10-03T14:08:37;9.13;;;2.90;;
14528;SDS011;7351;51.194;4.098;2022-10-03T14:11:33;12.13;;;2.80;;
14528;SDS011;7351;51.194;4.098;2022-10-03T14:14:10;8.37;;;2.70;;
14528;SDS011;7351;51.194;4.098;2022-10-03T14:16:59;7.00;;;3.10;;
14528;SDS011;7351;51.194;4.098;2022-10-03T14:19:34;9.60;;;2.97;;
14528;SDS011;7351;51.194;4.098;2022-10-03T14:22:12;5.45;;;3.40;;
14528;SDS011;7351;51.194;4.098;2022-10-03T14:25:07;9.27;;;4.17;;
14528;SDS011;7351;51.194;4.098;2022-10-03T14:27:51;8.33;;;3.77;;
14528;SDS011;7351;51.194;4.098;2022-10-03T14:30:20;14.37;;;3.30;;
14528;SDS011;7351;51.194;4.098;2022-10-03T14:32:52;6.90;;;2.73;;
14528;SDS011;7351;51.194;4.098;2022-10-03T14:35:38;9.63;;;2.23;;
14528;SDS011;7351;51.194;4.098;2022-10-03T14:38:21;10.27;;;3.10;;
14528;SDS011;7351;51.194;4.098;2022-10-03T14:41:23;8.93;;;2.47;;
14528;SDS011;7351;51.194;4.098;2022-10-03T14:43:59;9.90;;;3.30;;
14528;SDS011;7351;51.194;4.098;2022-10-03T14:46:30;9.70;;;3.33;;
14528;SDS011;7351;51.194;4.098;2022-10-03T14:49:02;8.67;;;2.43;;
14528;SDS011;7351;51.194;4.098;2022-10-03T14:51:33;6.87;;;2.93;;
14528;SDS011;7351;51.194;4.098;2022-10-03T14:54:13;7.60;;;3.80;;
14528;SDS011;7351;51.194;4.098;2022-10-03T14:56:45;10.10;;;3.13;;
14528;SDS011;7351;51.194;4.098;2022-10-03T14:59:16;12.33;;;4.40;;
14528;SDS011;7351;51.194;4.098;2022-10-03T15:01:46;8.87;;;2.80;;
14528;SDS011;7351;51.194;4.098;2022-10-03T15:04:16;6.00;;;2.47;;
14528;SDS011;7351;51.194;4.098;2022-10-03T15:06:52;8.43;;;2.97;;
14528;SDS011;7351;51.194;4.098;2022-10-03T15:09:24;5.10;;;2.93;;
14528;SDS011;7351;51.194;4.098;2022-10-03T15:12:02;11.23;;;3.30;;
14528;SDS011;7351;51.194;4.098;2022-10-03T15:14:35;6.97;;;2.90;;
14528;SDS011;7351;51.194;4.098;2022-10-03T15:17:13;10.80;;;3.57;;
14528;SDS011;7351;51.194;4.098;2022-10-03T15:19:47;12.20;;;4.27;;
14528;SDS011;7351;51.194;4.098;2022-10-03T15:22:24;9.67;;;3.27;;
14528;SDS011;7351;51.194;4.098;2022-10-03T15:25:00;6.80;;;2.70;;
14528;SDS011;7351;51.194;4.098;2022-10-03T15:27:31;6.90;;;2.80;;
14528;SDS011;7351;51.194;4.098;2022-10-03T15:30:00;7.47;;;3.30;;
14528;SDS011;7351;51.194;4.098;2022-10-03T15:32:31;7.63;;;3.10;;
14528;SDS011;7351;51.194;4.098;2022-10-03T15:35:03;9.40;;;4.57;;
14528;SDS011;7351;51.194;4.098;2022-10-03T15:37:32;12.00;;;5.73;;
14528;SDS011;7351;51.194;4.098;2022-10-03T15:40:04;8.87;;;3.57;;
14528;SDS011;7351;51.194;4.098;2022-10-03T15:42:42;8.73;;;3.57;;
14528;SDS011;7351;51.194;4.098;2022-10-03T15:45:16;10.93;;;3.90;;
14528;SDS011;7351;51.194;4.098;2022-10-03T15:47:47;6.20;;;2.87;;
14528;SDS011;7351;51.194;4.098;2022-10-03T15:50:16;6.97;;;3.50;;
14528;SDS011;7351;51.194;4.098;2022-10-03T15:52:49;10.70;;;2.87;;
14528;SDS011;7351;51.194;4.098;2022-10-03T15:55:20;7.33;;;3.90;;
14528;SDS011;7351;51.194;4.098;2022-10-03T15:57:52;11.93;;;3.20;;
14528;SDS011;7351;51.194;4.098;2022-10-03T16:00:26;9.63;;;3.83;;
14528;SDS011;7351;51.194;4.098;2022-10-03T16:03:01;10.50;;;3.97;;
14528;SDS011;7351;51.194;4.098;2022-10-03T16:05:37;8.00;;;3.30;;
14528;SDS011;7351;51.194;4.098;2022-10-03T16:08:15;12.47;;;4.20;;
14528;SDS011;7351;51.194;4.098;2022-10-03T16:10:50;10.30;;;4.40;;
14528;SDS011;7351;51.194;4.098;2022-10-03T16:13:28;9.70;;;4.20;;
14528;SDS011;7351;51.194;4.098;2022-10-03T16:16:07;13.20;;;4.03;;
14528;SDS011;7351;51.194;4.098;2022-10-03T16:18:43;14.00;;;4.33;;
14528;SDS011;7351;51.194;4.098;2022-10-03T16:21:17;8.93;;;3.80;;
14528;SDS011;7351;51.194;4.098;2022-10-03T16:23:54;14.20;;;4.57;;
14528;SDS011;7351;51.194;4.098;2022-10-03T16:26:27;9.93;;;4.27;;
14528;SDS011;7351;51.194;4.098;2022-10-03T16:29:00;12.50;;;4.30;;
14528;SDS011;7351;51.194;4.098;2022-10-03T16:31:36;9.70;;;3.53;;
14528;SDS011;7351;51.194;4.098;2022-10-03T16:34:10;11.10;;;4.30;;
14528;SDS011;7351;51.194;4.098;2022-10-03T16:36:40;13.43;;;4.37;;
14528;SDS011;7351;51.194;4.098;2022-10-03T16:39:14;13.90;;;5.40;;
14528;SDS011;7351;51.194;4.098;2022-10-03T16:41:47;11.87;;;4.60;;
14528;SDS011;7351;51.194;4.098;2022-10-03T16:44:18;12.13;;;6.13;;
14528;SDS011;7351;51.194;4.098;2022-10-03T16:46:49;11.97;;;4.47;;
14528;SDS011;7351;51.194;4.098;2022-10-03T16:49:34;9.33;;;6.57;;
14528;SDS011;7351;51.194;4.098;2022-10-03T16:52:23;13.70;;;10.17;;
14528;SDS011;7351;51.194;4.098;2022-10-03T16:54:57;17.83;;;13.10;;
14528;SDS011;7351;51.194;4.098;2022-10-03T16:57:30;17.60;;;14.53;;
14528;SDS011;7351;51.194;4.098;2022-10-03T17:00:06;21.37;;;19.27;;
14528;SDS011;7351;51.194;4.098;2022-10-03T17:02:45;32.03;;;23.93;;
14528;SDS011;7351;51.194;4.098;2022-10-03T17:05:13;29.17;;;16.00;;
14528;SDS011;7351;51.194;4.098;2022-10-03T17:07:41;19.03;;;8.83;;
14528;SDS011;7351;51.194;4.098;2022-10-03T17:10:20;17.23;;;10.60;;
14528;SDS011;7351;51.194;4.098;2022-10-03T17:13:02;15.43;;;10.47;;
14528;SDS011;7351;51.194;4.098;2022-10-03T17:15:37;13.27;;;9.50;;
14528;SDS011;7351;51.194;4.098;2022-10-03T17:18:15;14.73;;;10.30;;
14528;SDS011;7351;51.194;4.098;2022-10-03T17:20:47;20.33;;;6.63;;
14528;SDS011;7351;51.194;4.098;2022-10-03T17:23:28;13.87;;;5.70;;
14528;SDS011;7351;51.194;4.098;2022-10-03T17:26:01;14.77;;;7.37;;
14528;SDS011;7351;51.194;4.098;2022-10-03T17:28:37;16.30;;;13.47;;
14528;SDS011;7351;51.194;4.098;2022-10-03T17:31:16;21.00;;;16.87;;
14528;SDS011;7351;51.194;4.098;2022-10-03T17:33:53;19.03;;;11.67;;
14528;SDS011;7351;51.194;4.098;2022-10-03T17:36:48;19.33;;;15.30;;
14528;SDS011;7351;51.194;4.098;2022-10-03T17:39:53;16.03;;;10.27;;
14528;SDS011;7351;51.194;4.098;2022-10-03T17:42:26;12.47;;;8.40;;
14528;SDS011;7351;51.194;4.098;2022-10-03T17:45:19;12.17;;;6.77;;
14528;SDS011;7351;51.194;4.098;2022-10-03T17:47:57;15.33;;;8.53;;
14528;SDS011;7351;51.194;4.098;2022-10-03T17:50:30;16.33;;;9.40;;
14528;SDS011;7351;51.194;4.098;2022-10-03T17:53:03;12.77;;;9.67;;
14528;SDS011;7351;51.194;4.098;2022-10-03T17:55:32;17.70;;;9.60;;
14528;SDS011;7351;51.194;4.098;2022-10-03T17:58:02;19.10;;;10.83;;
14528;SDS011;7351;51.194;4.098;2022-10-03T18:00:35;21.07;;;9.50;;
14528;SDS011;7351;51.194;4.098;2022-10-03T18:03:24;16.30;;;8.57;;
14528;SDS011;7351;51.194;4.098;2022-10-03T18:05:56;19.60;;;10.13;;
14528;SDS011;7351;51.194;4.098;2022-10-03T18:08:27;14.03;;;9.13;;
14528;SDS011;7351;51.194;4.098;2022-10-03T18:10:56;14.57;;;8.30;;
14528;SDS011;7351;51.194;4.098;2022-10-03T18:13:27;19.03;;;8.70;;
14528;SDS011;7351;51.194;4.098;2022-10-03T18:16:08;11.40;;;8.60;;
14528;SDS011;7351;51.194;4.098;2022-10-03T18:21:42;12.00;;;7.93;;
14528;SDS011;7351;51.194;4.098;2022-10-03T18:24:34;20.70;;;9.17;;
14528;SDS011;7351;51.194;4.098;2022-10-03T18:27:15;13.13;;;7.90;;
14528;SDS011;7351;51.194;4.098;2022-10-03T18:30:15;12.80;;;8.23;;
14528;SDS011;7351;51.194;4.098;2022-10-03T18:32:47;15.33;;;8.20;;
14528;SDS011;7351;51.194;4.098;2022-10-03T18:35:16;10.87;;;7.63;;
14528;SDS011;7351;51.194;4.098;2022-10-03T18:37:54;11.37;;;8.47;;
14528;SDS011;7351;51.194;4.098;2022-10-03T18:40:31;15.57;;;8.10;;
14528;SDS011;7351;51.194;4.098;2022-10-03T18:43:00;15.40;;;8.87;;
14528;SDS011;7351;51.194;4.098;2022-10-03T18:45:32;13.10;;;7.90;;
14528;SDS011;7351;51.194;4.098;2022-10-03T18:48:06;16.03;;;7.73;;
14528;SDS011;7351;51.194;4.098;2022-10-03T18:50:42;12.03;;;8.20;;
14528;SDS011;7351;51.194;4.098;2022-10-03T18:53:18;15.93;;;7.67;;
14528;SDS011;7351;51.194;4.098;2022-10-03T18:55:53;14.40;;;8.23;;
14528;SDS011;7351;51.194;4.098;2022-10-03T18:58:24;13.13;;;8.57;;
14528;SDS011;7351;51.194;4.098;2022-10-03T19:01:00;12.47;;;8.23;;
14528;SDS011;7351;51.194;4.098;2022-10-03T19:03:33;9.40;;;7.90;;
14528;SDS011;7351;51.194;4.098;2022-10-03T19:06:03;10.77;;;8.40;;
14528;SDS011;7351;51.194;4.098;2022-10-03T19:08:34;15.33;;;11.50;;
14528;SDS011;7351;51.194;4.098;2022-10-03T19:11:14;17.70;;;13.10;;
14528;SDS011;7351;51.194;4.098;2022-10-03T19:13:51;15.13;;;9.63;;
14528;SDS011;7351;51.194;4.098;2022-10-03T19:16:31;15.30;;;10.27;;
14528;SDS011;7351;51.194;4.098;2022-10-03T19:19:23;15.77;;;9.80;;
14528;SDS011;7351;51.194;4.098;2022-10-03T19:21:59;10.00;;;7.70;;
14528;SDS011;7351;51.194;4.098;2022-10-03T19:24:30;16.87;;;15.07;;
14528;SDS011;7351;51.194;4.098;2022-10-03T19:27:02;26.27;;;24.07;;
14528;SDS011;7351;51.194;4.098;2022-10-03T19:29:40;18.10;;;15.07;;
14528;SDS011;7351;51.194;4.098;2022-10-03T19:32:15;19.20;;;13.00;;
14528;SDS011;7351;51.194;4.098;2022-10-03T19:34:47;15.57;;;11.40;;
14528;SDS011;7351;51.194;4.098;2022-10-03T19:37:16;17.73;;;15.27;;
14528;SDS011;7351;51.194;4.098;2022-10-03T19:39:49;20.63;;;17.33;;
14528;SDS011;7351;51.194;4.098;2022-10-03T19:42:22;18.43;;;16.77;;
14528;SDS011;7351;51.194;4.098;2022-10-03T19:44:56;25.63;;;17.40;;
14528;SDS011;7351;51.194;4.098;2022-10-03T19:47:26;18.80;;;16.30;;
14528;SDS011;7351;51.194;4.098;2022-10-03T19:50:02;16.97;;;14.10;;
14528;SDS011;7351;51.194;4.098;2022-10-03T19:52:37;18.40;;;13.87;;
14528;SDS011;7351;51.194;4.098;2022-10-03T19:55:09;17.60;;;14.97;;
14528;SDS011;7351;51.194;4.098;2022-10-03T19:57:42;16.67;;;14.83;;
14528;SDS011;7351;51.194;4.098;2022-10-03T20:00:24;18.90;;;15.53;;
14528;SDS011;7351;51.194;4.098;2022-10-03T20:02:54;19.20;;;15.37;;
14528;SDS011;7351;51.194;4.098;2022-10-03T20:05:31;15.77;;;12.60;;
14528;SDS011;7351;51.194;4.098;2022-10-03T20:08:10;16.93;;;12.17;;
14528;SDS011;7351;51.194;4.098;2022-10-03T20:10:51;12.37;;;11.03;;
14528;SDS011;7351;51.194;4.098;2022-10-03T20:13:40;19.07;;;11.60;;
14528;SDS011;7351;51.194;4.098;2022-10-03T20:16:08;17.90;;;12.07;;
14528;SDS011;7351;51.194;4.098;2022-10-03T20:18:40;16.80;;;11.43;;
14528;SDS011;7351;51.194;4.098;2022-10-03T20:21:10;19.93;;;12.60;;
14528;SDS011;7351;51.194;4.098;2022-10-03T20:23:42;13.40;;;12.17;;
14528;SDS011;7351;51.194;4.098;2022-10-03T20:26:11;13.13;;;12.13;;
14528;SDS011;7351;51.194;4.098;2022-10-03T20:28:53;12.70;;;10.87;;
14528;SDS011;7351;51.194;4.098;2022-10-03T20:31:30;14.30;;;12.40;;
14528;SDS011;7351;51.194;4.098;2022-10-03T20:33:59;20.60;;;12.97;;
14528;SDS011;7351;51.194;4.098;2022-10-03T20:36:31;13.60;;;12.30;;
14528;SDS011;7351;51.194;4.098;2022-10-03T20:39:03;12.93;;;11.23;;
14528;SDS011;7351;51.194;4.098;2022-10-03T20:41:44;13.80;;;11.83;;
14528;SDS011;7351;51.194;4.098;2022-10-03T20:44:26;15.53;;;13.27;;
14528;SDS011;7351;51.194;4.098;2022-10-03T20:47:13;19.90;;;13.27;;
14528;SDS011;7351;51.194;4.098;2022-10-03T20:49:48;16.27;;;12.63;;
14528;SDS011;7351;51.194;4.098;2022-10-03T20:52:20;14.47;;;13.17;;
14528;SDS011;7351;51.194;4.098;2022-10-03T20:54:49;17.17;;;15.30;;
14528;SDS011;7351;51.194;4.098;2022-10-03T20:57:17;14.60;;;13.07;;
14528;SDS011;7351;51.194;4.098;2022-10-03T20:59:47;18.13;;;15.60;;
14528;SDS011;7351;51.194;4.098;2022-10-03T21:02:26;18.00;;;14.73;;
14528;SDS011;7351;51.194;4.098;2022-10-03T21:04:55;17.63;;;14.93;;
14528;SDS011;7351;51.194;4.098;2022-10-03T21:07:31;14.17;;;12.70;;
14528;SDS011;7351;51.194;4.098;2022-10-03T21:10:06;13.67;;;12.30;;
14528;SDS011;7351;51.194;4.098;2022-10-03T21:12:43;20.60;;;12.70;;
14528;SDS011;7351;51.194;4.098;2022-10-03T21:15:16;18.73;;;13.33;;
14528;SDS011;7351;51.194;4.098;2022-10-03T21:17:48;14.53;;;13.00;;
14528;SDS011;7351;51.194;4.098;2022-10-03T21:20:16;14.20;;;12.40;;
14528;SDS011;7351;51.194;4.098;2022-10-03T21:22:49;15.50;;;13.73;;
14528;SDS011;7351;51.194;4.098;2022-10-03T21:25:18;22.20;;;13.13;;
14528;SDS011;7351;51.194;4.098;2022-10-03T21:27:50;16.47;;;14.67;;
14528;SDS011;7351;51.194;4.098;2022-10-03T21:30:21;16.77;;;14.33;;
14528;SDS011;7351;51.194;4.098;2022-10-03T21:32:55;15.03;;;13.70;;
14528;SDS011;7351;51.194;4.098;2022-10-03T21:35:26;16.27;;;14.47;;
14528;SDS011;7351;51.194;4.098;2022-10-03T21:38:01;15.20;;;13.47;;
14528;SDS011;7351;51.194;4.098;2022-10-03T21:40:43;22.07;;;14.10;;
14528;SDS011;7351;51.194;4.098;2022-10-03T21:43:27;16.10;;;13.93;;
14528;SDS011;7351;51.194;4.098;2022-10-03T21:46:07;19.80;;;16.33;;
14528;SDS011;7351;51.194;4.098;2022-10-03T21:48:44;15.57;;;14.07;;
14528;SDS011;7351;51.194;4.098;2022-10-03T21:51:28;20.13;;;15.00;;
14528;SDS011;7351;51.194;4.098;2022-10-03T21:54:17;15.60;;;14.10;;
14528;SDS011;7351;51.194;4.098;2022-10-03T21:57:01;18.90;;;14.10;;
14528;SDS011;7351;51.194;4.098;2022-10-03T21:59:47;15.73;;;13.63;;
14528;SDS011;7351;51.194;4.098;2022-10-03T22:02:30;18.40;;;14.57;;
14528;SDS011;7351;51.194;4.098;2022-10-03T22:05:06;14.43;;;12.80;;
14528;SDS011;7351;51.194;4.098;2022-10-03T22:07:43;14.60;;;13.10;;
14528;SDS011;7351;51.194;4.098;2022-10-03T22:10:17;14.80;;;13.47;;
14528;SDS011;7351;51.194;4.098;2022-10-03T22:12:47;15.27;;;13.77;;
14528;SDS011;7351;51.194;4.098;2022-10-03T22:15:20;17.57;;;16.00;;
14528;SDS011;7351;51.194;4.098;2022-10-03T22:17:53;16.47;;;14.97;;
14528;SDS011;7351;51.194;4.098;2022-10-03T22:20:24;17.93;;;16.20;;
14528;SDS011;7351;51.194;4.098;2022-10-03T22:23:01;21.03;;;16.07;;
14528;SDS011;7351;51.194;4.098;2022-10-03T22:25:47;16.37;;;14.97;;
14528;SDS011;7351;51.194;4.098;2022-10-03T22:28:24;17.93;;;15.73;;
14528;SDS011;7351;51.194;4.098;2022-10-03T22:31:00;17.53;;;15.03;;
14528;SDS011;7351;51.194;4.098;2022-10-03T22:33:39;18.00;;;14.83;;
14528;SDS011;7351;51.194;4.098;2022-10-03T22:36:13;18.73;;;15.53;;
14528;SDS011;7351;51.194;4.098;2022-10-03T22:38:43;16.47;;;14.97;;
14528;SDS011;7351;51.194;4.098;2022-10-03T22:41:14;15.57;;;14.10;;
14528;SDS011;7351;51.194;4.098;2022-10-03T22:43:44;18.47;;;14.57;;
14528;SDS011;7351;51.194;4.098;2022-10-03T22:46:13;17.67;;;15.90;;
14528;SDS011;7351;51.194;4.098;2022-10-03T22:48:47;17.63;;;15.73;;
14528;SDS011;7351;51.194;4.098;2022-10-03T22:51:16;17.30;;;14.70;;
14528;SDS011;7351;51.194;4.098;2022-10-03T22:53:46;17.13;;;15.63;;
14528;SDS011;7351;51.194;4.098;2022-10-03T22:56:45;17.27;;;15.17;;
14528;SDS011;7351;51.194;4.098;2022-10-03T22:59:18;16.20;;;14.70;;
14528;SDS011;7351;51.194;4.098;2022-10-03T23:01:49;16.50;;;14.33;;
14528;SDS011;7351;51.194;4.098;2022-10-03T23:04:20;17.17;;;15.47;;
14528;SDS011;7351;51.194;4.098;2022-10-03T23:09:56;20.00;;;15.70;;
14528;SDS011;7351;51.194;4.098;2022-10-03T23:12:32;18.20;;;16.33;;
14528;SDS011;7351;51.194;4.098;2022-10-03T23:15:05;20.90;;;16.53;;
14528;SDS011;7351;51.194;4.098;2022-10-03T23:17:46;17.20;;;15.73;;
14528;SDS011;7351;51.194;4.098;2022-10-03T23:20:35;17.00;;;15.60;;
14528;SDS011;7351;51.194;4.098;2022-10-03T23:23:16;18.90;;;16.77;;
14528;SDS011;7351;51.194;4.098;2022-10-03T23:25:52;18.30;;;16.43;;
14528;SDS011;7351;51.194;4.098;2022-10-03T23:28:27;19.43;;;16.27;;
14528;SDS011;7351;51.194;4.098;2022-10-03T23:31:00;18.50;;;16.57;;
14528;SDS011;7351;51.194;4.098;2022-10-03T23:36:18;18.17;;;16.33;;
14528;SDS011;7351;51.194;4.098;2022-10-03T23:38:52;19.33;;;16.33;;
14528;SDS011;7351;51.194;4.098;2022-10-03T23:41:29;19.03;;;16.10;;
14528;SDS011;7351;51.194;4.098;2022-10-03T23:44:23;19.10;;;16.70;;
14528;SDS011;7351;51.194;4.098;2022-10-03T23:47:00;18.07;;;16.33;;
14528;SDS011;7351;51.194;4.098;2022-10-03T23:49:30;17.67;;;15.87;;
14528;SDS011;7351;51.194;4.098;2022-10-03T23:51:58;17.90;;;16.30;;
14528;SDS011;7351;51.194;4.098;2022-10-03T23:54:25;17.10;;;15.50;;
14528;SDS011;7351;51.194;4.098;2022-10-03T23:56:53;17.70;;;16.17;;
14528;SDS011;7351;51.194;4.098;2022-10-03T23:59:29;17.87;;;16.13;;
